createdAt,value
2022-08-19T00:01:53.139Z,20.30
2022-08-19T00:04:24.274Z,20.30
2022-08-19T00:06:54.526Z,20.30
2022-08-19T00:09:24.597Z,20.30
2022-08-19T00:11:53.621Z,20.30
2022-08-19T00:14:22.938Z,20.20
2022-08-19T00:16:52.536Z,20.20
2022-08-19T00:19:20.863Z,20.20
2022-08-19T00:21:49.329Z,20.20
2022-08-19T00:24:19.462Z,20.20
2022-08-19T00:26:47.925Z,20.20
2022-08-19T00:29:18.976Z,20.20
2022-08-19T00:31:48.154Z,20.20
2022-08-19T00:34:19.566Z,20.20
2022-08-19T00:36:49.125Z,20.20
2022-08-19T00:39:19.862Z,20.10
2022-08-19T00:41:49.805Z,20.10
2022-08-19T00:44:21.054Z,20.10
2022-08-19T00:46:57.779Z,20.10
2022-08-19T00:49:31.666Z,20.10
2022-08-19T00:52:03.886Z,20.10
2022-08-19T00:54:34.180Z,20.10
2022-08-19T00:57:07.170Z,20.10
2022-08-19T01:00:00.517Z,20.10
2022-08-19T01:02:27.141Z,20.10
2022-08-19T01:04:55.998Z,20.10
2022-08-19T01:07:24.685Z,20.00
2022-08-19T01:09:54.640Z,20.00
2022-08-19T01:12:23.285Z,20.00
2022-08-19T01:14:52.276Z,20.00
2022-08-19T01:17:21.409Z,20.00
2022-08-19T01:19:51.764Z,20.00
2022-08-19T01:22:33.439Z,20.00
2022-08-19T01:25:03.633Z,20.00
2022-08-19T01:27:43.866Z,20.00
2022-08-19T01:30:15.185Z,20.00
2022-08-19T01:32:44.340Z,20.00
2022-08-19T01:35:18.853Z,20.00
2022-08-19T01:37:52.917Z,20.00
2022-08-19T01:40:52.994Z,20.00
2022-08-19T01:43:21.801Z,19.90
2022-08-19T01:45:50.059Z,19.90
2022-08-19T01:48:18.670Z,19.80
2022-08-19T01:53:49.619Z,19.80
2022-08-19T01:56:19.057Z,19.80
2022-08-19T01:58:53.756Z,19.80
2022-08-19T02:01:22.591Z,19.80
2022-08-19T02:03:51.166Z,19.80
2022-08-19T02:06:19.479Z,19.80
2022-08-19T02:08:57.347Z,19.80
2022-08-19T02:11:31.188Z,19.80
2022-08-19T02:14:00.364Z,19.80
2022-08-19T02:16:28.697Z,19.80
2022-08-19T02:18:57.037Z,19.70
2022-08-19T02:21:26.563Z,19.70
2022-08-19T02:23:56.375Z,19.80
2022-08-19T02:26:24.878Z,19.70
2022-08-19T02:28:53.193Z,19.70
2022-08-19T02:31:23.500Z,19.70
2022-08-19T02:33:56.602Z,19.70
2022-08-19T02:36:27.131Z,19.70
2022-08-19T02:38:56.511Z,19.70
2022-08-19T02:41:28.298Z,19.70
2022-08-19T02:44:26.524Z,19.70
2022-08-19T02:46:48.984Z,19.70
2022-08-19T02:49:19.967Z,19.70
2022-08-19T02:51:48.971Z,19.70
2022-08-19T02:54:18.754Z,19.70
2022-08-19T02:56:47.523Z,19.70
2022-08-19T02:59:15.945Z,19.70
2022-08-19T03:01:44.618Z,19.60
2022-08-19T03:04:16.558Z,19.60
2022-08-19T03:06:47.290Z,19.60
2022-08-19T03:09:16.246Z,19.60
2022-08-19T03:11:46.452Z,19.50
2022-08-19T03:14:16.997Z,19.50
2022-08-19T03:16:48.628Z,19.50
2022-08-19T03:19:19.854Z,19.50
2022-08-19T03:21:48.330Z,19.40
2022-08-19T03:24:18.322Z,19.40
2022-08-19T03:26:53.048Z,19.40
2022-08-19T03:29:30.858Z,19.40
2022-08-19T03:32:01.668Z,19.40
2022-08-19T03:34:32.894Z,19.40
2022-08-19T03:37:07.771Z,19.40
2022-08-19T03:39:37.757Z,19.40
2022-08-19T03:42:38.735Z,19.40
2022-08-19T03:44:55.996Z,19.40
2022-08-19T03:47:24.236Z,19.50
2022-08-19T03:49:52.557Z,19.50
2022-08-19T03:52:20.846Z,19.50
2022-08-19T03:54:49.274Z,19.50
2022-08-19T03:57:18.891Z,19.40
2022-08-19T03:59:47.051Z,19.40
2022-08-19T04:02:15.715Z,19.40
2022-08-19T04:04:45.533Z,19.40
2022-08-19T04:07:17.281Z,19.40
2022-08-19T04:09:46.206Z,19.40
2022-08-19T04:12:14.573Z,19.40
2022-08-19T04:14:44.334Z,19.40
2022-08-19T04:17:13.965Z,19.40
2022-08-19T04:19:43.977Z,19.30
2022-08-19T04:22:13.061Z,19.30
2022-08-19T04:24:41.390Z,19.20
2022-08-19T04:27:09.615Z,19.20
2022-08-19T04:29:40.576Z,19.20
2022-08-19T04:32:10.557Z,19.20
2022-08-19T04:35:01.407Z,19.20
2022-08-19T04:37:35.513Z,19.10
2022-08-19T04:40:24.530Z,19.10
2022-08-19T04:42:54.670Z,19.10
2022-08-19T04:45:23.573Z,19.10
2022-08-19T04:48:27.163Z,19.10
2022-08-19T04:50:46.461Z,19.10
2022-08-19T04:53:14.528Z,19.10
2022-08-19T04:55:43.617Z,19.10
2022-08-19T04:58:11.744Z,19.10
2022-08-19T05:00:40.912Z,19.20
2022-08-19T05:03:10.565Z,19.20
2022-08-19T05:05:45.008Z,19.20
2022-08-19T05:08:15.258Z,19.30
2022-08-19T05:10:43.695Z,19.30
2022-08-19T05:13:11.878Z,19.30
2022-08-19T05:15:39.946Z,19.30
2022-08-19T05:18:25.642Z,19.30
2022-08-19T05:21:12.546Z,19.20
2022-08-19T05:23:42.055Z,19.30
2022-08-19T05:26:11.942Z,19.40
2022-08-19T05:28:39.998Z,19.40
2022-08-19T05:31:08.165Z,19.40
2022-08-19T05:33:36.301Z,19.40
2022-08-19T05:36:06.802Z,19.50
2022-08-19T05:38:34.938Z,19.50
2022-08-19T05:41:03.637Z,19.50
2022-08-19T05:43:32.222Z,19.50
2022-08-19T05:46:00.293Z,19.50
2022-08-19T05:48:29.210Z,19.40
2022-08-19T05:50:57.917Z,19.30
2022-08-19T05:53:27.390Z,19.30
2022-08-19T05:55:55.465Z,19.40
2022-08-19T05:58:26.896Z,19.40
2022-08-19T06:00:56.293Z,19.40
2022-08-19T06:03:24.859Z,19.40
2022-08-19T06:05:55.977Z,19.40
2022-08-19T06:08:34.321Z,19.30
2022-08-19T06:11:20.289Z,19.30
2022-08-19T06:13:51.512Z,19.40
2022-08-19T06:16:23.110Z,19.30
2022-08-19T06:18:53.465Z,19.40
2022-08-19T06:21:21.989Z,19.30
2022-08-19T06:23:51.318Z,19.40
2022-08-19T06:26:21.916Z,19.30
2022-08-19T06:28:50.267Z,19.30
2022-08-19T06:31:21.231Z,19.30
2022-08-19T06:33:50.731Z,19.40
2022-08-19T06:36:22.038Z,19.30
2022-08-19T06:38:54.039Z,19.40
2022-08-19T06:41:23.544Z,19.40
2022-08-19T06:43:53.983Z,19.40
2022-08-19T06:46:25.070Z,19.50
2022-08-19T06:48:54.418Z,19.50
2022-08-19T06:51:24.896Z,19.40
2022-08-19T06:53:55.850Z,19.40
2022-08-19T06:56:31.905Z,19.30
2022-08-19T06:59:00.145Z,19.20
2022-08-19T07:01:28.765Z,19.20
2022-08-19T07:03:57.494Z,19.30
2022-08-19T07:06:43.609Z,19.30
2022-08-19T07:09:18.568Z,19.30
2022-08-19T07:11:50.158Z,19.30
2022-08-19T07:14:20.392Z,19.40
2022-08-19T07:16:49.969Z,19.30
2022-08-19T07:19:18.841Z,19.30
2022-08-19T07:21:47.906Z,19.40
2022-08-19T07:24:16.783Z,19.40
2022-08-19T07:26:46.050Z,19.40
2022-08-19T07:29:17.490Z,19.40
2022-08-19T07:31:46.470Z,19.40
2022-08-19T07:34:15.607Z,19.50
2022-08-19T07:36:46.741Z,19.50
2022-08-19T07:39:18.490Z,19.50
2022-08-19T07:41:47.621Z,19.50
2022-08-19T07:44:17.426Z,19.50
2022-08-19T07:46:49.270Z,19.60
2022-08-19T07:49:20.049Z,19.50
2022-08-19T07:51:49.685Z,19.50
2022-08-19T07:54:18.990Z,19.50
2022-08-19T07:56:47.241Z,19.50
2022-08-19T07:59:18.358Z,19.50
2022-08-19T08:01:46.984Z,19.50
2022-08-19T08:04:33.347Z,19.40
2022-08-19T08:07:19.045Z,19.50
2022-08-19T08:09:49.651Z,19.50
2022-08-19T08:12:36.428Z,19.60
2022-08-19T08:15:12.432Z,19.60
2022-08-19T08:17:49.678Z,19.60
2022-08-19T08:20:20.399Z,19.50
2022-08-19T08:23:07.151Z,19.60
2022-08-19T08:25:36.229Z,19.70
2022-08-19T08:28:05.696Z,20.00
2022-08-19T08:30:36.851Z,20.10
2022-08-19T08:33:06.521Z,20.20
2022-08-19T08:35:35.425Z,20.30
2022-08-19T08:38:05.858Z,20.50
2022-08-19T08:40:40.922Z,20.80
2022-08-19T08:43:13.671Z,21.10
2022-08-19T08:45:53.343Z,21.50
2022-08-19T08:48:26.569Z,21.80
2022-08-19T08:50:57.374Z,22.00
2022-08-19T08:53:29.199Z,22.10
2022-08-19T08:55:57.978Z,22.20
2022-08-19T08:58:33.178Z,22.20
2022-08-19T09:01:02.596Z,22.30
2022-08-19T09:03:31.411Z,22.30
2022-08-19T09:06:04.393Z,22.40
2022-08-19T09:08:44.974Z,22.40
2022-08-19T09:11:42.676Z,22.50
2022-08-19T09:14:49.423Z,22.50
2022-08-19T09:17:16.586Z,22.50
2022-08-19T09:19:56.110Z,22.50
2022-08-19T09:22:27.423Z,22.40
2022-08-19T09:24:56.208Z,22.40
2022-08-19T09:27:42.105Z,22.30
2022-08-19T09:30:15.990Z,22.40
2022-08-19T09:32:46.509Z,22.50
2022-08-19T09:35:16.421Z,22.60
2022-08-19T09:37:45.336Z,22.90
2022-08-19T09:40:15.622Z,23.20
2022-08-19T09:42:49.995Z,23.40
2022-08-19T09:45:22.294Z,23.50
2022-08-19T09:47:54.122Z,23.60
2022-08-19T09:50:24.304Z,23.60
2022-08-19T09:52:57.352Z,23.70
2022-08-19T09:55:31.935Z,24.00
2022-08-19T09:58:04.430Z,24.10
2022-08-19T10:00:32.951Z,24.20
2022-08-19T10:03:02.350Z,24.10
2022-08-19T10:05:50.173Z,24.20
2022-08-19T10:08:20.694Z,24.30
2022-08-19T10:10:49.126Z,24.30
2022-08-19T10:13:22.870Z,24.40
2022-08-19T10:15:52.038Z,24.40
2022-08-19T10:18:23.029Z,24.40
2022-08-19T10:20:53.452Z,24.40
2022-08-19T10:23:22.912Z,24.60
2022-08-19T10:25:54.471Z,24.60
2022-08-19T10:28:23.953Z,24.20
2022-08-19T10:30:52.026Z,24.10
2022-08-19T10:33:40.908Z,24.00
2022-08-19T10:36:12.698Z,24.10
2022-08-19T10:38:47.528Z,24.30
2022-08-19T10:41:23.312Z,24.40
2022-08-19T10:43:55.281Z,24.70
2022-08-19T10:46:25.247Z,24.70
2022-08-19T10:48:55.909Z,24.80
2022-08-19T10:51:42.327Z,24.60
2022-08-19T10:54:16.475Z,24.50
2022-08-19T10:56:52.849Z,24.20
2022-08-19T10:59:26.888Z,24.10
2022-08-19T11:01:56.782Z,24.20
2022-08-19T11:04:29.616Z,24.30
2022-08-19T11:06:58.381Z,24.40
2022-08-19T11:09:33.666Z,24.40
2022-08-19T11:12:05.009Z,24.70
2022-08-19T11:14:34.745Z,24.70
2022-08-19T11:17:03.826Z,24.80
2022-08-19T11:19:34.085Z,24.80
2022-08-19T11:22:03.950Z,24.60
2022-08-19T11:24:33.657Z,24.80
2022-08-19T11:27:08.716Z,25.00
2022-08-19T11:29:37.483Z,25.00
2022-08-19T11:32:07.902Z,25.20
2022-08-19T11:34:38.201Z,25.20
2022-08-19T11:37:07.015Z,25.20
2022-08-19T11:39:36.328Z,25.20
2022-08-19T11:42:26.703Z,25.00
2022-08-19T11:44:54.957Z,24.80
2022-08-19T11:47:23.105Z,24.70
2022-08-19T11:49:54.354Z,24.60
2022-08-19T11:52:22.390Z,24.70
2022-08-19T11:54:50.559Z,24.80
2022-08-19T11:57:19.468Z,24.70
2022-08-19T11:59:50.910Z,24.70
2022-08-19T12:02:20.030Z,24.70
2022-08-19T12:04:48.365Z,24.80
2022-08-19T12:07:17.945Z,24.90
2022-08-19T12:09:46.032Z,25.00
2022-08-19T12:12:17.098Z,25.10
2022-08-19T12:14:45.399Z,25.20
2022-08-19T12:17:14.323Z,25.30
2022-08-19T12:19:42.357Z,25.30
2022-08-19T12:22:10.386Z,25.30
2022-08-19T12:24:39.819Z,25.20
2022-08-19T12:27:12.577Z,25.20
2022-08-19T12:29:42.512Z,24.90
2022-08-19T12:32:12.204Z,24.80
2022-08-19T12:34:41.386Z,24.80
2022-08-19T12:37:09.902Z,24.80
2022-08-19T12:39:42.744Z,25.00
2022-08-19T12:42:11.500Z,25.10
2022-08-19T12:44:41.625Z,25.10
2022-08-19T12:47:12.787Z,25.20
2022-08-19T12:49:54.413Z,25.40
2022-08-19T12:52:24.786Z,25.50
2022-08-19T12:54:55.324Z,25.40
2022-08-19T12:57:32.146Z,25.50
2022-08-19T13:00:05.079Z,25.60
2022-08-19T13:02:38.475Z,25.60
2022-08-19T13:05:10.175Z,25.40
2022-08-19T13:07:39.401Z,25.50
2022-08-19T13:10:12.056Z,25.40
2022-08-19T13:12:42.811Z,25.50
2022-08-19T13:15:12.157Z,25.40
2022-08-19T13:17:41.963Z,25.40
2022-08-19T13:20:12.218Z,25.50
2022-08-19T13:22:40.537Z,25.40
2022-08-19T13:25:11.275Z,25.20
2022-08-19T13:27:40.463Z,25.30
2022-08-19T13:30:27.970Z,25.30
2022-08-19T13:33:16.238Z,25.40
2022-08-19T13:35:48.059Z,25.60
2022-08-19T13:38:18.361Z,25.60
2022-08-19T13:40:48.347Z,25.60
2022-08-19T13:43:23.135Z,25.60
2022-08-19T13:45:57.454Z,25.80
2022-08-19T13:48:27.473Z,26.00
2022-08-19T13:50:56.152Z,26.10
2022-08-19T13:53:25.584Z,25.60
2022-08-19T13:55:55.329Z,25.50
2022-08-19T13:58:23.563Z,25.50
2022-08-19T14:00:51.735Z,25.40
2022-08-19T14:03:19.828Z,25.30
2022-08-19T14:05:48.633Z,25.10
2022-08-19T14:08:16.714Z,25.00
2022-08-19T14:10:45.666Z,24.90
2022-08-19T14:13:18.300Z,24.80
2022-08-19T14:15:48.210Z,24.70
2022-08-19T14:18:16.962Z,24.80
2022-08-19T14:20:45.884Z,24.80
2022-08-19T14:23:14.567Z,24.80
2022-08-19T14:25:42.675Z,24.80
2022-08-19T14:28:11.121Z,24.70
2022-08-19T14:30:40.553Z,24.70
2022-08-19T14:33:09.761Z,24.80
2022-08-19T14:35:38.749Z,24.80
2022-08-19T14:38:17.374Z,24.70
2022-08-19T14:40:46.685Z,24.80
2022-08-19T14:43:15.270Z,24.80
2022-08-19T14:45:47.592Z,24.90
2022-08-19T14:48:19.581Z,25.00
2022-08-19T14:50:48.687Z,25.00
2022-08-19T14:53:18.666Z,25.00
2022-08-19T14:55:48.408Z,25.00
2022-08-19T14:58:28.532Z,25.10
2022-08-19T15:01:01.057Z,25.10
2022-08-19T15:03:29.689Z,25.10
2022-08-19T15:05:58.810Z,25.00
2022-08-19T15:08:27.351Z,25.00
2022-08-19T15:10:56.150Z,24.80
2022-08-19T15:13:25.544Z,24.70
2022-08-19T15:15:53.748Z,24.80
2022-08-19T15:18:23.430Z,24.80
2022-08-19T15:20:52.109Z,24.80
2022-08-19T15:23:21.730Z,24.80
2022-08-19T15:25:52.980Z,24.80
2022-08-19T15:28:21.157Z,24.70
2022-08-19T15:30:49.294Z,24.60
2022-08-19T15:33:18.486Z,24.60
2022-08-19T15:35:50.857Z,24.60
2022-08-19T15:38:21.982Z,24.60
2022-08-19T15:40:51.250Z,24.50
2022-08-19T15:43:22.141Z,24.50
2022-08-19T15:45:50.398Z,24.40
2022-08-19T15:48:18.729Z,24.30
2022-08-19T15:50:48.181Z,24.30
2022-08-19T15:53:17.005Z,24.20
2022-08-19T15:55:48.175Z,24.20
2022-08-19T15:58:34.471Z,24.20
2022-08-19T16:01:23.531Z,24.20
2022-08-19T16:04:13.899Z,24.20
2022-08-19T16:06:47.442Z,24.20
2022-08-19T16:09:16.534Z,24.10
2022-08-19T16:11:46.117Z,24.00
2022-08-19T16:14:15.037Z,24.00
2022-08-19T16:16:44.520Z,23.90
2022-08-19T16:19:15.115Z,23.90
2022-08-19T16:21:45.690Z,23.90
2022-08-19T16:24:16.616Z,23.80
2022-08-19T16:26:46.127Z,23.80
2022-08-19T16:29:14.852Z,23.70
2022-08-19T16:31:56.774Z,23.70
2022-08-19T16:34:25.831Z,23.60
2022-08-19T16:36:55.229Z,23.60
2022-08-19T16:39:23.706Z,23.60
2022-08-19T16:41:51.969Z,23.50
2022-08-19T16:44:20.873Z,23.50
2022-08-19T16:46:58.648Z,23.40
2022-08-19T16:49:54.504Z,23.40
2022-08-19T16:52:18.030Z,23.40
2022-08-19T16:54:46.293Z,23.40
2022-08-19T16:57:14.726Z,23.30
2022-08-19T16:59:49.294Z,23.30
2022-08-19T17:02:18.348Z,23.30
2022-08-19T17:04:58.189Z,23.20
2022-08-19T17:07:29.335Z,23.20
2022-08-19T17:10:02.047Z,23.10
2022-08-19T17:12:32.061Z,23.10
2022-08-19T17:15:02.414Z,23.10
2022-08-19T17:17:30.660Z,23.00
2022-08-19T17:19:59.009Z,23.00
2022-08-19T17:22:28.790Z,23.00
2022-08-19T17:24:58.391Z,23.00
2022-08-19T17:27:32.474Z,22.90
2022-08-19T17:30:02.983Z,22.90
2022-08-19T17:32:33.296Z,22.80
2022-08-19T17:35:01.467Z,22.80
2022-08-19T17:37:30.978Z,22.80
2022-08-19T17:39:59.074Z,22.70
2022-08-19T17:42:27.922Z,22.70
2022-08-19T17:44:59.430Z,22.70
2022-08-19T17:47:28.408Z,22.70
2022-08-19T17:49:56.956Z,22.60
2022-08-19T17:52:25.514Z,22.50
2022-08-19T17:54:54.968Z,22.50
2022-08-19T17:57:23.053Z,22.50
2022-08-19T17:59:51.179Z,22.40
2022-08-19T18:02:21.427Z,22.40
2022-08-19T18:04:50.182Z,22.40
2022-08-19T18:07:21.669Z,22.30
2022-08-19T18:09:52.560Z,22.30
2022-08-19T18:12:26.489Z,22.20
2022-08-19T18:14:54.729Z,22.20
2022-08-19T18:17:23.324Z,22.10
2022-08-19T18:19:51.629Z,22.10
2022-08-19T18:22:26.880Z,22.10
2022-08-19T18:24:56.031Z,22.00
2022-08-19T18:27:25.972Z,22.00
2022-08-19T18:29:58.944Z,21.90
2022-08-19T18:32:27.910Z,21.90
2022-08-19T18:34:56.125Z,21.80
2022-08-19T18:37:26.267Z,21.80
2022-08-19T18:40:20.078Z,21.80
2022-08-19T18:43:21.933Z,21.70
2022-08-19T18:46:07.971Z,21.70
2022-08-19T18:48:53.705Z,21.60
2022-08-19T18:51:27.749Z,21.60
2022-08-19T18:53:58.782Z,21.50
2022-08-19T18:56:31.635Z,21.50
2022-08-19T18:59:02.205Z,21.40
2022-08-19T19:01:32.809Z,21.30
2022-08-19T19:04:03.551Z,21.30
2022-08-19T19:06:35.795Z,21.30
2022-08-19T19:09:03.989Z,21.20
2022-08-19T19:11:34.865Z,21.20
2022-08-19T19:14:10.339Z,21.10
2022-08-19T19:16:39.375Z,21.10
2022-08-19T19:19:13.409Z,21.00
2022-08-19T19:21:47.474Z,21.00
2022-08-19T19:24:18.042Z,21.00
2022-08-19T19:26:46.524Z,20.90
2022-08-19T19:29:16.590Z,20.90
2022-08-19T19:31:45.377Z,20.80
2022-08-19T19:34:15.499Z,20.80
2022-08-19T19:36:58.042Z,20.70
2022-08-19T19:39:44.929Z,20.70
2022-08-19T19:42:19.853Z,20.60
2022-08-19T19:44:51.358Z,20.60
2022-08-19T19:47:19.856Z,20.60
2022-08-19T19:52:39.192Z,20.50
2022-08-19T19:55:09.452Z,20.50
2022-08-19T19:57:39.229Z,20.50
2022-08-19T20:00:11.022Z,20.40
2022-08-19T20:02:39.073Z,20.40
2022-08-19T20:05:07.593Z,20.30
2022-08-19T20:07:53.277Z,20.30
2022-08-19T20:10:21.349Z,20.30
2022-08-19T20:12:49.377Z,20.30
2022-08-19T20:15:19.304Z,20.20
2022-08-19T20:17:47.923Z,20.20
2022-08-19T20:20:17.886Z,20.20
2022-08-19T20:22:47.385Z,20.20
2022-08-19T20:25:15.997Z,20.10
2022-08-19T20:27:44.682Z,20.10
2022-08-19T20:30:19.609Z,20.10
2022-08-19T20:32:50.340Z,20.00
2022-08-19T20:35:21.391Z,20.00
2022-08-19T20:37:52.856Z,20.00
2022-08-19T20:40:24.161Z,20.00
2022-08-19T20:42:52.290Z,19.90
2022-08-19T20:45:33.642Z,19.90
2022-08-19T20:48:03.887Z,19.90
2022-08-19T20:50:32.601Z,19.80
2022-08-19T20:53:00.760Z,19.80
2022-08-19T20:55:30.428Z,19.80
2022-08-19T20:57:58.659Z,19.80
2022-08-19T21:00:29.213Z,19.80
2022-08-19T21:02:57.361Z,19.80
2022-08-19T21:05:30.443Z,19.80
2022-08-19T21:07:59.150Z,19.80
2022-08-19T21:10:27.494Z,19.70
2022-08-19T21:12:55.867Z,19.70
2022-08-19T21:15:24.918Z,19.70
2022-08-19T21:17:53.147Z,19.60
2022-08-19T21:20:21.310Z,19.60
2022-08-19T21:22:50.737Z,19.60
2022-08-19T21:25:19.149Z,19.60
2022-08-19T21:27:47.880Z,19.50
2022-08-19T21:30:15.966Z,19.50
2022-08-19T21:32:44.047Z,19.50
2022-08-19T21:35:12.258Z,19.50
2022-08-19T21:37:40.326Z,19.50
2022-08-19T21:40:11.267Z,19.50
2022-08-19T21:42:39.710Z,19.50
2022-08-19T21:45:08.416Z,19.50
2022-08-19T21:47:37.061Z,19.40
2022-08-19T21:50:05.496Z,19.40
2022-08-19T21:52:34.071Z,19.40
2022-08-19T21:55:02.158Z,19.40
2022-08-19T21:57:31.611Z,19.40
2022-08-19T21:59:59.678Z,19.30
2022-08-19T22:02:28.158Z,19.30
2022-08-19T22:04:56.255Z,19.30
2022-08-19T22:07:24.303Z,19.30
2022-08-19T22:09:52.745Z,19.30
2022-08-19T22:12:23.974Z,19.30
2022-08-19T22:14:54.204Z,19.30
2022-08-19T22:17:23.365Z,19.30
2022-08-19T22:19:52.514Z,19.30
2022-08-19T22:22:22.174Z,19.30
2022-08-19T22:24:50.211Z,19.30
2022-08-19T22:27:18.298Z,19.30
2022-08-19T22:29:46.372Z,19.30
2022-08-19T22:32:27.973Z,19.30
2022-08-19T22:34:58.849Z,19.30
2022-08-19T22:37:27.668Z,19.20
2022-08-19T22:39:56.269Z,19.30
2022-08-19T22:42:25.281Z,19.20
2022-08-19T22:45:00.081Z,19.20
2022-08-19T22:47:34.062Z,19.20
2022-08-19T22:50:02.523Z,19.20
2022-08-19T22:52:30.027Z,19.20
2022-08-19T22:55:01.896Z,19.30
2022-08-19T22:57:30.018Z,19.20
2022-08-19T23:00:01.150Z,19.30
2022-08-19T23:02:34.582Z,19.20
2022-08-19T23:05:04.230Z,19.30
2022-08-19T23:07:32.361Z,19.30
2022-08-19T23:10:00.445Z,19.30
2022-08-19T23:12:31.555Z,19.30
2022-08-19T23:15:03.471Z,19.30
2022-08-19T23:17:33.594Z,19.30
2022-08-19T23:20:01.697Z,19.30
2022-08-19T23:22:30.546Z,19.30
2022-08-19T23:25:03.215Z,19.30
2022-08-19T23:27:48.771Z,19.30
2022-08-19T23:30:29.000Z,19.30
2022-08-19T23:33:00.870Z,19.30
2022-08-19T23:35:33.466Z,19.30
2022-08-19T23:38:02.028Z,19.30
2022-08-19T23:40:30.506Z,19.30
2022-08-19T23:42:58.872Z,19.30
2022-08-19T23:45:28.107Z,19.20
2022-08-19T23:48:03.398Z,19.30
2022-08-19T23:50:32.510Z,19.30
2022-08-19T23:53:01.519Z,19.30
2022-08-19T23:55:32.705Z,19.30
2022-08-19T23:58:01.450Z,19.30
